createdAt,value
2022-09-07T00:01:54.156Z,98073.15
2022-09-07T00:04:25.388Z,98071.10
2022-09-07T00:06:58.179Z,98075.00
2022-09-07T00:15:53.000Z,98072.24
2022-09-07T00:18:23.780Z,98075.77
2022-09-07T00:21:02.223Z,98076.17
2022-09-07T00:23:33.737Z,98069.56
2022-09-07T00:26:06.005Z,98066.48
2022-09-07T00:28:36.617Z,98067.83
2022-09-07T00:31:10.098Z,98070.59
2022-09-07T00:33:40.754Z,98069.42
2022-09-07T00:36:11.154Z,98062.49
2022-09-07T00:38:41.590Z,98066.02
2022-09-07T00:41:12.619Z,98072.05
2022-09-07T00:43:45.256Z,98073.57
2022-09-07T00:46:18.386Z,98075.46
2022-09-07T00:48:52.385Z,98075.06
2022-09-07T00:51:25.615Z,98073.79
2022-09-07T00:53:59.471Z,98066.13
2022-09-07T00:56:33.360Z,98064.15
2022-09-07T00:59:04.080Z,98073.47
2022-09-07T01:01:35.108Z,98089.02
2022-09-07T01:04:06.049Z,98108.39
2022-09-07T01:06:38.521Z,98107.55
2022-09-07T01:09:10.929Z,98112.46
2022-09-07T01:11:41.454Z,98112.72
2022-09-07T01:14:14.809Z,98101.48
2022-09-07T01:16:54.295Z,98081.02
2022-09-07T01:19:49.179Z,98053.56
2022-09-07T01:22:37.519Z,98030.04
2022-09-07T01:25:11.957Z,98026.20
2022-09-07T01:28:02.960Z,98019.66
2022-09-07T01:30:35.924Z,98018.51
2022-09-07T01:33:17.693Z,98018.41
2022-09-07T01:35:56.442Z,98016.42
2022-09-07T01:38:39.591Z,98012.70
2022-09-07T01:41:12.591Z,98000.80
2022-09-07T01:43:46.518Z,97982.57
2022-09-07T01:46:20.020Z,97969.35
2022-09-07T01:48:52.854Z,97971.04
2022-09-07T01:51:24.482Z,97971.09
2022-09-07T01:53:57.729Z,97977.17
2022-09-07T01:56:31.885Z,97988.94
2022-09-07T01:59:06.148Z,97999.88
2022-09-07T02:01:39.854Z,98005.88
2022-09-07T02:04:12.866Z,98005.34
2022-09-07T02:06:48.161Z,98001.52
2022-09-07T02:09:23.817Z,98002.06
2022-09-07T02:11:54.803Z,98008.09
2022-09-07T02:14:28.708Z,98008.36
2022-09-07T02:17:03.021Z,98018.45
2022-09-07T02:19:39.042Z,98030.70
2022-09-07T02:22:12.083Z,98043.61
2022-09-07T02:24:45.795Z,98047.95
2022-09-07T02:27:20.648Z,98060.46
2022-09-07T02:29:52.088Z,98063.80
2022-09-07T02:32:22.509Z,98062.14
2022-09-07T02:34:53.321Z,98063.80
2022-09-07T02:37:23.842Z,98060.14
2022-09-07T02:39:54.206Z,98085.39
2022-09-07T02:42:24.669Z,98116.18
2022-09-07T02:44:55.041Z,98113.17
2022-09-07T02:47:33.059Z,98142.70
2022-09-07T02:50:26.377Z,98129.51
2022-09-07T02:53:08.020Z,98113.05
2022-09-07T02:55:43.838Z,98108.84
2022-09-07T02:58:23.586Z,98111.65
2022-09-07T03:01:00.548Z,98120.29
2022-09-07T03:03:38.258Z,98118.02
2022-09-07T03:06:14.135Z,98109.11
2022-09-07T03:08:48.109Z,98091.69
2022-09-07T03:11:19.292Z,98078.89
2022-09-07T03:13:49.664Z,98069.48
2022-09-07T03:16:20.333Z,98062.05
2022-09-07T03:18:51.275Z,98060.89
2022-09-07T03:21:21.618Z,98055.52
2022-09-07T03:23:52.086Z,98053.48
2022-09-07T03:26:25.373Z,98054.80
2022-09-07T03:28:55.963Z,98046.25
2022-09-07T03:31:26.351Z,98045.91
2022-09-07T03:33:56.963Z,98048.16
2022-09-07T03:36:27.265Z,98053.98
2022-09-07T03:38:58.668Z,98044.42
2022-09-07T03:41:29.944Z,98044.48
2022-09-07T03:44:05.523Z,98043.59
2022-09-07T03:46:35.953Z,98039.34
2022-09-07T03:49:06.320Z,98040.00
2022-09-07T03:51:36.608Z,98042.64
2022-09-07T03:54:07.524Z,98045.48
2022-09-07T03:56:37.847Z,98047.48
2022-09-07T03:59:08.304Z,98043.84
2022-09-07T04:01:39.058Z,98041.41
2022-09-07T04:04:09.588Z,98028.36
2022-09-07T04:06:39.972Z,98022.64
2022-09-07T04:09:12.105Z,98026.61
2022-09-07T04:11:42.708Z,98032.16
2022-09-07T04:14:13.560Z,98034.55
2022-09-07T04:16:45.345Z,98035.13
2022-09-07T04:19:15.953Z,98030.80
2022-09-07T04:21:47.170Z,98027.04
2022-09-07T04:24:18.153Z,98029.04
2022-09-07T04:26:48.696Z,98030.36
2022-09-07T04:29:19.070Z,98030.96
2022-09-07T04:31:49.426Z,98023.16
2022-09-07T04:34:19.780Z,98017.21
2022-09-07T04:36:50.270Z,98020.21
2022-09-07T04:39:20.725Z,98023.02
2022-09-07T04:41:51.137Z,98025.38
2022-09-07T04:44:21.764Z,98026.77
2022-09-07T04:46:52.200Z,98030.20
2022-09-07T04:49:23.146Z,98036.27
2022-09-07T04:51:53.544Z,98038.93
2022-09-07T04:54:24.064Z,98038.73
2022-09-07T04:56:54.457Z,98040.81
2022-09-07T04:59:24.951Z,98050.92
2022-09-07T05:01:55.377Z,98047.85
2022-09-07T05:04:25.895Z,98050.20
2022-09-07T05:06:57.132Z,98049.24
2022-09-07T05:09:27.455Z,98043.54
2022-09-07T05:11:57.813Z,98034.17
2022-09-07T05:14:28.513Z,98025.48
2022-09-07T05:16:58.955Z,98025.70
2022-09-07T05:19:29.572Z,98035.54
2022-09-07T05:22:00.576Z,98044.16
2022-09-07T05:24:31.380Z,98053.68
2022-09-07T05:27:02.837Z,98050.83
2022-09-07T05:32:23.806Z,98054.75
2022-09-07T05:34:54.112Z,98054.98
2022-09-07T05:37:24.478Z,98054.00
2022-09-07T05:39:56.979Z,98051.73
2022-09-07T05:42:27.797Z,98057.20
2022-09-07T05:44:58.130Z,98056.83
2022-09-07T05:47:29.011Z,98053.16
2022-09-07T05:49:59.681Z,98055.80
2022-09-07T05:52:30.038Z,98058.45
2022-09-07T05:55:13.417Z,98063.13
2022-09-07T05:57:53.552Z,98063.42
2022-09-07T06:00:23.884Z,98065.92
2022-09-07T06:02:54.194Z,98070.73
2022-09-07T06:05:24.545Z,98072.94
2022-09-07T06:07:54.868Z,98068.91
2022-09-07T06:13:16.139Z,98060.83
2022-09-07T06:15:46.608Z,98057.59
2022-09-07T06:18:17.165Z,98055.92
2022-09-07T06:20:47.474Z,98056.27
2022-09-07T06:23:17.763Z,98059.25
2022-09-07T06:25:51.493Z,98059.74
2022-09-07T06:28:21.780Z,98062.07
2022-09-07T06:30:52.065Z,98063.88
2022-09-07T06:33:22.869Z,98065.02
2022-09-07T06:35:59.064Z,98064.79
2022-09-07T06:38:32.139Z,98067.19
2022-09-07T06:43:57.726Z,98073.80
2022-09-07T06:49:18.439Z,98069.69
2022-09-07T06:51:48.762Z,98070.00
2022-09-07T06:57:10.024Z,98079.13
2022-09-07T06:59:40.664Z,98080.95
2022-09-07T07:02:14.936Z,98082.36
2022-09-07T07:04:46.467Z,98080.52
2022-09-07T07:07:16.914Z,98082.31
2022-09-07T07:09:47.247Z,98081.10
2022-09-07T07:14:46.750Z,98077.08
2022-09-07T07:17:17.178Z,98074.70
2022-09-07T07:19:47.483Z,98072.80
2022-09-07T07:22:43.038Z,98074.15
2022-09-07T07:25:09.848Z,98072.09
2022-09-07T07:27:40.331Z,98076.77
2022-09-07T07:30:12.038Z,98075.06
2022-09-07T07:32:42.627Z,98079.82
2022-09-07T07:35:14.079Z,98083.05
2022-09-07T07:37:44.364Z,98086.96
2022-09-07T07:40:16.912Z,98087.44
2022-09-07T07:42:49.744Z,98089.70
2022-09-07T07:48:10.411Z,98086.13
2022-09-07T07:50:41.421Z,98087.14
2022-09-07T07:56:03.623Z,98093.26
2022-09-07T07:58:35.988Z,98093.77
2022-09-07T08:01:07.998Z,98093.66
2022-09-07T08:03:37.196Z,98094.41
2022-09-07T08:06:08.917Z,98099.88
2022-09-07T08:08:40.111Z,98097.83
2022-09-07T08:11:12.054Z,98100.42
2022-09-07T08:13:43.469Z,98104.59
2022-09-07T08:16:14.260Z,98109.67
2022-09-07T08:18:47.016Z,98110.11
2022-09-07T08:21:17.982Z,98109.05
2022-09-07T08:23:48.303Z,98109.48
2022-09-07T08:26:18.662Z,98108.60
2022-09-07T08:28:48.936Z,98104.48
2022-09-07T08:31:19.658Z,98108.91
2022-09-07T08:33:49.964Z,98111.67
2022-09-07T08:36:21.456Z,98110.45
2022-09-07T08:38:52.018Z,98112.73
2022-09-07T08:41:36.172Z,98112.73
2022-09-07T08:44:11.137Z,98123.69
2022-09-07T08:46:44.873Z,98126.95
2022-09-07T08:49:18.819Z,98130.16
2022-09-07T08:51:51.766Z,98132.45
2022-09-07T08:54:22.087Z,98127.25
2022-09-07T08:59:47.501Z,98133.02
2022-09-07T09:02:27.817Z,98137.02
2022-09-07T09:08:00.379Z,98142.34
2022-09-07T09:10:38.012Z,98145.33
2022-09-07T09:13:16.862Z,98147.65
2022-09-07T09:16:03.584Z,98148.30
2022-09-07T09:18:40.911Z,98145.05
2022-09-07T09:21:15.573Z,98144.33
2022-09-07T09:23:47.949Z,98143.13
2022-09-07T09:26:22.092Z,98137.90
2022-09-07T09:28:52.554Z,98142.38
2022-09-07T09:31:25.825Z,98142.79
2022-09-07T09:34:13.642Z,98145.57
2022-09-07T09:36:46.988Z,98137.40
2022-09-07T09:39:27.682Z,98142.71
2022-09-07T09:42:00.221Z,98141.32
2022-09-07T09:44:34.149Z,98137.57
2022-09-07T09:49:55.292Z,98134.00
2022-09-07T09:52:29.144Z,98133.08
2022-09-07T09:55:23.548Z,98134.83
2022-09-07T10:01:21.213Z,98125.95
2022-09-07T10:06:24.431Z,98123.34
2022-09-07T10:08:58.402Z,98121.96
2022-09-07T10:12:07.083Z,98116.13
2022-09-07T10:14:45.543Z,98108.57
2022-09-07T10:17:19.293Z,98108.20
2022-09-07T10:19:49.879Z,98101.31
2022-09-07T10:22:33.978Z,98106.85
2022-09-07T10:25:37.959Z,98103.17
2022-09-07T10:28:18.749Z,98101.74
2022-09-07T10:31:14.540Z,98095.04
2022-09-07T10:36:45.957Z,98095.20
2022-09-07T10:39:19.860Z,98085.63
2022-09-07T10:41:57.706Z,98078.66
2022-09-07T10:44:38.917Z,98075.31
2022-09-07T10:47:12.375Z,98077.65
2022-09-07T10:52:42.596Z,98073.87
2022-09-07T10:55:17.089Z,98074.06
2022-09-07T10:57:59.452Z,98071.70
2022-09-07T11:00:33.293Z,98067.67
2022-09-07T11:03:26.501Z,98066.27
2022-09-07T11:06:09.159Z,98067.99
2022-09-07T11:14:37.138Z,98061.23
2022-09-07T11:17:09.750Z,98051.05
2022-09-07T11:19:45.156Z,98046.35
2022-09-07T11:22:22.324Z,98045.45
2022-09-07T11:27:51.005Z,98046.56
2022-09-07T11:30:23.983Z,98045.23
2022-09-07T11:33:02.879Z,98041.31
2022-09-07T11:35:37.937Z,98040.82
2022-09-07T11:38:18.222Z,98041.48
2022-09-07T11:40:56.299Z,98041.09
2022-09-07T11:43:30.784Z,98033.73
2022-09-07T11:46:05.133Z,98031.98
2022-09-07T11:48:39.715Z,98027.42
2022-09-07T11:51:15.032Z,98026.81
2022-09-07T11:53:47.463Z,98024.04
2022-09-07T11:56:21.740Z,98025.92
2022-09-07T11:59:12.853Z,98029.81
2022-09-07T12:01:51.771Z,98025.24
2022-09-07T12:04:32.140Z,98017.16
2022-09-07T12:07:23.962Z,98015.61
2022-09-07T12:10:19.898Z,98003.16
2022-09-07T12:13:02.254Z,97999.36
2022-09-07T12:15:40.590Z,97999.41
2022-09-07T12:18:23.132Z,97990.50
2022-09-07T12:20:54.615Z,97992.74
2022-09-07T12:23:30.372Z,97992.89
2022-09-07T12:26:46.535Z,97986.44
2022-09-07T12:29:25.562Z,97981.52
2022-09-07T12:31:58.590Z,97985.70
2022-09-07T12:35:01.748Z,97981.14
2022-09-07T12:37:51.439Z,97993.32
2022-09-07T12:40:44.018Z,97991.60
2022-09-07T12:43:36.346Z,97985.13
2022-09-07T12:46:08.387Z,97979.66
2022-09-07T12:48:46.642Z,97995.73
2022-09-07T12:54:22.759Z,98032.15
2022-09-07T13:00:01.761Z,98071.13
2022-09-07T13:02:54.334Z,98095.15
2022-09-07T13:05:34.455Z,98119.55
2022-09-07T13:08:19.731Z,98087.13
2022-09-07T13:10:50.161Z,98073.83
2022-09-07T13:16:31.933Z,98046.67
2022-09-07T13:19:04.465Z,98038.21
2022-09-07T13:21:43.659Z,98032.48
2022-09-07T13:24:56.674Z,98037.02
2022-09-07T13:27:44.342Z,98041.16
2022-09-07T13:30:28.994Z,98045.33
2022-09-07T13:33:26.910Z,98049.10
2022-09-07T13:36:00.220Z,98049.55
2022-09-07T13:38:31.665Z,98042.59
2022-09-07T13:41:13.890Z,98036.14
2022-09-07T13:43:42.807Z,98037.27
2022-09-07T13:46:19.126Z,98033.73
2022-09-07T13:48:52.545Z,98029.90
2022-09-07T13:51:28.400Z,98030.60
2022-09-07T13:54:06.604Z,98026.61
2022-09-07T13:56:45.346Z,98021.40
2022-09-07T13:59:22.136Z,98015.95
2022-09-07T14:01:52.840Z,98018.55
2022-09-07T14:04:26.170Z,98018.80
2022-09-07T14:07:06.627Z,98013.17
2022-09-07T14:09:37.356Z,98013.80
2022-09-07T14:12:16.987Z,98012.54
2022-09-07T14:22:03.812Z,98013.87
2022-09-07T14:24:36.277Z,98015.38
2022-09-07T14:27:07.740Z,98016.41
2022-09-07T14:29:38.621Z,98017.92
2022-09-07T14:32:11.832Z,98014.79
2022-09-07T14:34:43.258Z,98012.71
2022-09-07T14:37:16.096Z,98008.96
2022-09-07T14:39:49.068Z,98010.92
2022-09-07T14:42:23.088Z,98005.61
2022-09-07T14:44:57.740Z,98004.05
2022-09-07T14:47:30.067Z,98005.32
2022-09-07T14:50:05.656Z,98000.96
2022-09-07T14:52:42.988Z,97999.27
2022-09-07T14:55:29.877Z,97992.88
2022-09-07T14:58:24.849Z,97989.17
2022-09-07T15:04:02.771Z,97988.35
2022-09-07T15:09:38.222Z,97983.23
2022-09-07T15:12:18.950Z,97981.61
2022-09-07T15:14:49.457Z,97982.13
2022-09-07T15:20:32.719Z,97980.70
2022-09-07T15:23:03.961Z,97974.50
2022-09-07T15:25:34.612Z,97968.89
2022-09-07T15:28:05.314Z,97968.56
2022-09-07T15:30:35.866Z,97964.89
2022-09-07T15:33:06.334Z,97964.33
2022-09-07T15:35:36.578Z,97962.33
2022-09-07T15:38:59.543Z,97961.21
2022-09-07T15:41:21.896Z,97960.80
2022-09-07T15:43:48.474Z,97956.55
2022-09-07T15:46:18.855Z,97951.21
2022-09-07T15:48:53.681Z,97954.17
2022-09-07T15:54:17.057Z,97944.11
2022-09-07T15:59:38.763Z,97933.83
2022-09-07T16:04:59.570Z,97926.88
2022-09-07T16:10:20.482Z,97934.36
2022-09-07T16:13:17.015Z,97935.05
2022-09-07T16:15:46.260Z,97941.20
2022-09-07T16:18:18.555Z,97939.02
2022-09-07T16:20:52.203Z,97936.13
2022-09-07T16:23:22.809Z,97931.94
2022-09-07T16:26:00.618Z,97926.33
2022-09-07T16:28:31.485Z,97923.16
2022-09-07T16:31:02.757Z,97920.05
2022-09-07T16:33:36.868Z,97924.59
2022-09-07T16:36:10.593Z,97922.56
2022-09-07T16:38:45.630Z,97922.98
2022-09-07T16:41:18.136Z,97923.14
2022-09-07T16:43:48.861Z,97921.62
2022-09-07T16:46:20.796Z,97919.35
2022-09-07T16:48:51.967Z,97914.35
2022-09-07T16:51:24.111Z,97917.20
2022-09-07T16:53:56.239Z,97919.35
2022-09-07T16:56:28.202Z,97922.36
2022-09-07T16:59:01.857Z,97925.38
2022-09-07T17:01:34.377Z,97921.10
2022-09-07T17:04:09.867Z,97923.65
2022-09-07T17:06:41.766Z,97918.80
2022-09-07T17:09:13.348Z,97920.15
2022-09-07T17:11:43.774Z,97921.08
2022-09-07T17:14:14.413Z,97921.18
2022-09-07T17:16:44.756Z,97927.85
2022-09-07T17:19:31.872Z,97929.58
2022-09-07T17:22:03.324Z,97932.39
2022-09-07T17:24:34.206Z,97930.59
2022-09-07T17:27:04.887Z,97930.75
2022-09-07T17:29:38.328Z,97927.58
2022-09-07T17:32:25.350Z,97925.15
2022-09-07T17:34:56.207Z,97925.13
2022-09-07T17:37:26.543Z,97919.98
2022-09-07T17:39:57.010Z,97923.75
2022-09-07T17:43:38.902Z,97923.50
2022-09-07T17:45:18.823Z,97922.65
2022-09-07T17:47:50.283Z,97928.31
2022-09-07T17:50:20.697Z,97929.32
2022-09-07T17:52:53.908Z,97924.98
2022-09-07T17:55:24.379Z,97924.42
2022-09-07T17:57:54.714Z,97921.23
2022-09-07T18:00:25.023Z,97917.41
2022-09-07T18:02:55.831Z,97917.69
2022-09-07T18:05:26.187Z,97917.17
2022-09-07T18:08:00.442Z,97921.30
2022-09-07T18:11:45.069Z,97918.35
2022-09-07T18:13:33.494Z,97922.50
2022-09-07T18:16:12.816Z,97922.69
2022-09-07T18:18:43.436Z,97919.67
2022-09-07T18:21:16.153Z,97920.59
2022-09-07T18:23:46.453Z,97926.09
2022-09-07T18:26:16.763Z,97925.78
2022-09-07T18:31:37.461Z,97922.41
2022-09-07T18:34:08.074Z,97916.93
2022-09-07T18:36:40.686Z,97915.05
2022-09-07T18:39:09.587Z,97916.84
2022-09-07T18:41:40.879Z,97917.68
2022-09-07T18:47:01.748Z,97925.83
2022-09-07T18:49:32.584Z,97929.04
2022-09-07T18:54:53.423Z,97928.00
2022-09-07T18:57:25.054Z,97927.05
2022-09-07T18:59:55.475Z,97928.98
2022-09-07T19:02:25.916Z,97928.00
2022-09-07T19:07:47.003Z,97929.09
2022-09-07T19:10:17.777Z,97931.45
2022-09-07T19:12:48.423Z,97929.64
2022-09-07T19:15:20.378Z,97927.40
2022-09-07T19:17:50.807Z,97927.98
2022-09-07T19:20:21.112Z,97923.50
2022-09-07T19:22:51.424Z,97917.73
2022-09-07T19:25:23.317Z,97915.96
2022-09-07T19:27:53.704Z,97916.48
2022-09-07T19:30:24.106Z,97914.55
2022-09-07T19:32:54.574Z,97909.02
2022-09-07T19:35:24.945Z,97902.28
2022-09-07T19:37:55.808Z,97895.22
2022-09-07T19:40:26.292Z,97881.61
2022-09-07T19:42:57.292Z,97875.77
2022-09-07T19:45:28.379Z,97870.90
2022-09-07T19:47:58.820Z,97865.33
2022-09-07T19:50:29.111Z,97859.20
2022-09-07T19:52:59.771Z,97852.82
2022-09-07T19:55:30.149Z,97858.64
2022-09-07T19:58:00.589Z,97858.25
2022-09-07T20:00:31.350Z,97857.59
2022-09-07T20:03:01.689Z,97860.21
2022-09-07T20:05:32.037Z,97858.63
2022-09-07T20:08:02.566Z,97857.23
2022-09-07T20:10:34.945Z,97855.44
2022-09-07T20:13:05.788Z,97852.17
2022-09-07T20:15:36.121Z,97851.83
2022-09-07T20:18:06.705Z,97848.15
2022-09-07T20:20:37.881Z,97844.63
2022-09-07T20:23:08.531Z,97844.16
2022-09-07T20:25:39.318Z,97838.90
2022-09-07T20:28:10.118Z,97839.29
2022-09-07T20:30:45.321Z,97843.05
2022-09-07T20:33:15.621Z,97842.83
2022-09-07T20:35:47.652Z,97843.66
2022-09-07T20:38:18.184Z,97837.58
2022-09-07T20:40:54.544Z,97837.33
2022-09-07T20:43:25.295Z,97834.81
2022-09-07T20:46:00.031Z,97838.65
2022-09-07T20:48:31.092Z,97846.13
2022-09-07T20:51:03.909Z,97846.45
2022-09-07T20:53:34.551Z,97845.70
2022-09-07T20:56:07.224Z,97840.88
2022-09-07T20:58:37.563Z,97845.24
2022-09-07T21:01:08.159Z,97845.70
2022-09-07T21:03:39.072Z,97844.22
2022-09-07T21:06:11.177Z,97849.99
2022-09-07T21:08:44.201Z,97846.81
2022-09-07T21:11:17.937Z,97850.46
2022-09-07T21:13:49.461Z,97850.92
2022-09-07T21:16:21.074Z,97840.23
2022-09-07T21:18:55.643Z,97832.13
2022-09-07T21:21:28.945Z,97829.54
2022-09-07T21:24:04.093Z,97835.52
2022-09-07T21:26:36.316Z,97838.43
2022-09-07T21:29:09.265Z,97842.70
2022-09-07T21:31:42.008Z,97844.11
2022-09-07T21:34:13.049Z,97848.03
2022-09-07T21:36:46.000Z,97846.77
2022-09-07T21:39:16.542Z,97842.80
2022-09-07T21:41:48.989Z,97841.13
2022-09-07T21:44:21.544Z,97847.70
2022-09-07T21:46:53.065Z,97840.38
2022-09-07T21:49:24.293Z,97841.56
2022-09-07T21:51:55.873Z,97837.66
2022-09-07T21:54:28.552Z,97835.91
2022-09-07T21:57:00.046Z,97838.10
2022-09-07T21:59:31.757Z,97836.84
2022-09-07T22:02:03.068Z,97841.95
2022-09-07T22:04:35.349Z,97838.66
2022-09-07T22:07:08.060Z,97832.96
2022-09-07T22:16:22.136Z,97835.94
2022-09-07T22:18:52.637Z,97836.48
2022-09-07T22:21:25.180Z,97841.09
2022-09-07T22:23:57.857Z,97835.89
2022-09-07T22:26:27.110Z,97829.00
2022-09-07T22:28:57.648Z,97825.27
2022-09-07T22:31:29.300Z,97821.36
2022-09-07T22:34:00.339Z,97813.83
2022-09-07T22:36:33.009Z,97810.59
2022-09-07T22:39:05.367Z,97802.96
2022-09-07T22:41:38.157Z,97796.26
2022-09-07T22:44:11.371Z,97784.18
2022-09-07T22:46:43.308Z,97778.33
2022-09-07T22:49:15.802Z,97773.55
2022-09-07T22:51:46.693Z,97767.92
2022-09-07T22:54:16.964Z,97764.81
2022-09-07T22:56:47.271Z,97758.98
2022-09-07T22:59:17.543Z,97755.91
2022-09-07T23:01:47.903Z,97755.99
2022-09-07T23:04:18.281Z,97751.21
2022-09-07T23:06:48.968Z,97748.34
2022-09-07T23:09:20.810Z,97738.80
2022-09-07T23:11:51.302Z,97740.88
2022-09-07T23:14:22.795Z,97732.06
2022-09-07T23:16:53.149Z,97729.98
2022-09-07T23:19:23.467Z,97727.77
2022-09-07T23:21:53.897Z,97727.02
2022-09-07T23:24:24.356Z,97725.04
2022-09-07T23:26:54.656Z,97712.75
2022-09-07T23:29:25.330Z,97704.46
2022-09-07T23:31:55.817Z,97702.30
2022-09-07T23:34:26.114Z,97705.35
2022-09-07T23:36:56.511Z,97698.81
2022-09-07T23:39:27.240Z,97689.84
2022-09-07T23:41:57.650Z,97686.24
2022-09-07T23:44:28.009Z,97678.64
2022-09-07T23:46:58.466Z,97677.52
2022-09-07T23:49:28.933Z,97684.70
2022-09-07T23:51:59.236Z,97679.20
2022-09-07T23:54:29.479Z,97684.31
2022-09-07T23:57:00.291Z,97680.30
2022-09-07T23:59:33.741Z,97681.39
